Nos coordonnées

Nous sommes à votre écoute du lundi au dimanche de 10:00 à 19:00 au :

+32 (0)495 19 89 53

 

Adresse d'exploitation Adresse de facturation
Chaussée de Nivelles, 629
6230 Buzet
Belgique
Kouter 107/2
9000 Gent
Belgique

contact @ blackhelicopters.be (n'oubliez pas de supprimer les espaces)


Nous retrouver

Il est très fortement conseillé de nous appeler avant de venir sur le terrain, nous pouvons être en mission ou en vol!

 

La carte ci-dessous est interactive, cherchez vos itinéraires, déplacez la pour vous retrouver.

News

Votre panier

Le panier est vide

Météo Charleroi

METAR
EBCI 230850Z 07008KT 0600 R24/1300N FG OVC002 00/M00 Q1031 NOSIG =
EBCI 230500Z 2306/2412 06006KT 3000 BR SCT004 BKN008 TEMPO 2306/2311 1400 BCFG BKN003 PROB40 TEMPO 2306/2310 0300 FG FZFG BKN001 PROB40 2312/2317 6000 NSW SCT008 BKN015 TEMPO 2321/2409 1400 BR -SG BKN003 PROB40 2321/2409 0300 FZFG BKN001 BECMG 2410/2412 6000 NSW BKN015
TAF
EBCI 230500Z 2306/2412 06006KT 3000 BR SCT004 BKN008 TEMPO 2306/2311 1400 BCFG BKN003 PROB40 TEMPO 2306/2310 0300 FG FZFG BKN001 PROB40 2312/2317 6000 NSW SCT008 BKN015 TEMPO 2321/2409 1400 BR -SG BKN003 PROB40 2321/2409 0300 FZFG BKN001 BECMG 2410/2412 6000 NSW BKN015 =
Lever / Coucher : 07:29 / 16:20 UTC (Buzet 2020-01-23)